sensor_id;sensor_type;location;lat;lon;timestamp;P1;durP1;ratioP1;P2;durP2;ratioP2
16994;SDS011;8614;48.522;9.206;2023-04-24T00:01:07;1.90;;;1.80;;
16994;SDS011;8614;48.522;9.206;2023-04-24T00:03:34;1.70;;;1.60;;
16994;SDS011;8614;48.522;9.206;2023-04-24T00:06:01;1.90;;;1.80;;
16994;SDS011;8614;48.522;9.206;2023-04-24T00:08:28;2.20;;;2.03;;
16994;SDS011;8614;48.522;9.206;2023-04-24T00:10:55;1.90;;;1.80;;
16994;SDS011;8614;48.522;9.206;2023-04-24T00:13:22;1.90;;;1.80;;
16994;SDS011;8614;48.522;9.206;2023-04-24T00:15:49;1.90;;;1.80;;
16994;SDS011;8614;48.522;9.206;2023-04-24T00:18:17;1.90;;;1.80;;
16994;SDS011;8614;48.522;9.206;2023-04-24T00:20:44;2.00;;;1.90;;
16994;SDS011;8614;48.522;9.206;2023-04-24T00:23:11;2.37;;;1.80;;
16994;SDS011;8614;48.522;9.206;2023-04-24T00:25:38;2.03;;;1.70;;
16994;SDS011;8614;48.522;9.206;2023-04-24T00:28:05;1.97;;;1.87;;
16994;SDS011;8614;48.522;9.206;2023-04-24T00:30:32;2.40;;;2.20;;
16994;SDS011;8614;48.522;9.206;2023-04-24T00:32:59;2.00;;;1.90;;
16994;SDS011;8614;48.522;9.206;2023-04-24T00:35:27;1.90;;;1.80;;
16994;SDS011;8614;48.522;9.206;2023-04-24T00:37:54;2.50;;;2.00;;
16994;SDS011;8614;48.522;9.206;2023-04-24T00:40:21;1.90;;;1.80;;
16994;SDS011;8614;48.522;9.206;2023-04-24T00:42:48;1.90;;;1.80;;
16994;SDS011;8614;48.522;9.206;2023-04-24T00:45:15;2.00;;;1.90;;
16994;SDS011;8614;48.522;9.206;2023-04-24T00:47:42;2.00;;;1.90;;
16994;SDS011;8614;48.522;9.206;2023-04-24T00:50:10;1.80;;;1.70;;
16994;SDS011;8614;48.522;9.206;2023-04-24T00:52:39;1.80;;;1.70;;
16994;SDS011;8614;48.522;9.206;2023-04-24T00:55:07;2.10;;;2.00;;
16994;SDS011;8614;48.522;9.206;2023-04-24T00:57:34;2.10;;;1.90;;
16994;SDS011;8614;48.522;9.206;2023-04-24T01:00:01;3.47;;;1.93;;
16994;SDS011;8614;48.522;9.206;2023-04-24T01:02:30;2.13;;;1.93;;
16994;SDS011;8614;48.522;9.206;2023-04-24T01:04:59;1.90;;;1.80;;
16994;SDS011;8614;48.522;9.206;2023-04-24T01:07:26;1.87;;;1.77;;
16994;SDS011;8614;48.522;9.206;2023-04-24T01:09:54;1.90;;;1.80;;
16994;SDS011;8614;48.522;9.206;2023-04-24T01:12:24;1.97;;;1.87;;
16994;SDS011;8614;48.522;9.206;2023-04-24T01:14:50;1.83;;;1.80;;
16994;SDS011;8614;48.522;9.206;2023-04-24T01:17:17;2.13;;;1.90;;
16994;SDS011;8614;48.522;9.206;2023-04-24T01:19:46;1.80;;;1.70;;
16994;SDS011;8614;48.522;9.206;2023-04-24T01:22:14;2.20;;;2.00;;
16994;SDS011;8614;48.522;9.206;2023-04-24T01:24:42;1.90;;;1.80;;
16994;SDS011;8614;48.522;9.206;2023-04-24T01:27:11;1.97;;;1.83;;
16994;SDS011;8614;48.522;9.206;2023-04-24T01:29:38;2.20;;;2.10;;
16994;SDS011;8614;48.522;9.206;2023-04-24T01:32:05;2.00;;;1.90;;
16994;SDS011;8614;48.522;9.206;2023-04-24T01:34:33;1.93;;;1.83;;
16994;SDS011;8614;48.522;9.206;2023-04-24T01:37:00;2.10;;;1.90;;
16994;SDS011;8614;48.522;9.206;2023-04-24T01:39:28;2.13;;;2.00;;
16994;SDS011;8614;48.522;9.206;2023-04-24T01:41:55;2.10;;;2.00;;
16994;SDS011;8614;48.522;9.206;2023-04-24T01:44:22;2.17;;;1.90;;
16994;SDS011;8614;48.522;9.206;2023-04-24T01:46:49;2.47;;;2.03;;
16994;SDS011;8614;48.522;9.206;2023-04-24T01:49:16;2.47;;;2.10;;
16994;SDS011;8614;48.522;9.206;2023-04-24T01:51:43;2.10;;;2.00;;
16994;SDS011;8614;48.522;9.206;2023-04-24T01:54:11;2.10;;;1.90;;
16994;SDS011;8614;48.522;9.206;2023-04-24T01:56:40;1.83;;;1.73;;
16994;SDS011;8614;48.522;9.206;2023-04-24T01:59:08;2.30;;;2.10;;
16994;SDS011;8614;48.522;9.206;2023-04-24T02:01:37;2.27;;;2.10;;
16994;SDS011;8614;48.522;9.206;2023-04-24T02:04:05;2.33;;;2.10;;
16994;SDS011;8614;48.522;9.206;2023-04-24T02:06:34;2.10;;;2.00;;
16994;SDS011;8614;48.522;9.206;2023-04-24T02:09:01;2.30;;;2.20;;
16994;SDS011;8614;48.522;9.206;2023-04-24T02:11:29;2.00;;;1.90;;
16994;SDS011;8614;48.522;9.206;2023-04-24T02:13:57;2.00;;;1.90;;
16994;SDS011;8614;48.522;9.206;2023-04-24T02:16:25;2.57;;;2.37;;
16994;SDS011;8614;48.522;9.206;2023-04-24T02:18:51;2.57;;;2.30;;
16994;SDS011;8614;48.522;9.206;2023-04-24T02:21:18;3.87;;;2.40;;
16994;SDS011;8614;48.522;9.206;2023-04-24T02:23:45;2.50;;;2.10;;
16994;SDS011;8614;48.522;9.206;2023-04-24T02:26:12;2.77;;;2.20;;
16994;SDS011;8614;48.522;9.206;2023-04-24T02:28:39;2.40;;;2.20;;
16994;SDS011;8614;48.522;9.206;2023-04-24T02:31:07;3.53;;;2.33;;
16994;SDS011;8614;48.522;9.206;2023-04-24T02:33:33;2.10;;;2.00;;
16994;SDS011;8614;48.522;9.206;2023-04-24T02:36:01;2.37;;;2.20;;
16994;SDS011;8614;48.522;9.206;2023-04-24T02:38:27;2.57;;;2.20;;
16994;SDS011;8614;48.522;9.206;2023-04-24T02:40:54;2.77;;;2.57;;
16994;SDS011;8614;48.522;9.206;2023-04-24T02:43:21;2.90;;;2.60;;
16994;SDS011;8614;48.522;9.206;2023-04-24T02:45:49;6.47;;;2.50;;
16994;SDS011;8614;48.522;9.206;2023-04-24T02:48:17;2.87;;;2.30;;
16994;SDS011;8614;48.522;9.206;2023-04-24T02:50:45;2.50;;;2.30;;
16994;SDS011;8614;48.522;9.206;2023-04-24T02:53:12;3.97;;;2.67;;
16994;SDS011;8614;48.522;9.206;2023-04-24T02:55:39;3.13;;;2.50;;
16994;SDS011;8614;48.522;9.206;2023-04-24T02:58:06;2.33;;;2.20;;
16994;SDS011;8614;48.522;9.206;2023-04-24T03:00:33;2.60;;;2.40;;
16994;SDS011;8614;48.522;9.206;2023-04-24T03:03:00;2.73;;;2.53;;
16994;SDS011;8614;48.522;9.206;2023-04-24T03:05:29;2.60;;;2.40;;
16994;SDS011;8614;48.522;9.206;2023-04-24T03:07:56;2.80;;;2.60;;
16994;SDS011;8614;48.522;9.206;2023-04-24T03:10:23;2.60;;;2.40;;
16994;SDS011;8614;48.522;9.206;2023-04-24T03:12:50;2.30;;;2.20;;
16994;SDS011;8614;48.522;9.206;2023-04-24T03:15:17;2.70;;;2.50;;
16994;SDS011;8614;48.522;9.206;2023-04-24T03:17:44;2.80;;;2.60;;
16994;SDS011;8614;48.522;9.206;2023-04-24T03:20:11;3.90;;;2.60;;
16994;SDS011;8614;48.522;9.206;2023-04-24T03:22:39;2.90;;;2.63;;
16994;SDS011;8614;48.522;9.206;2023-04-24T03:25:07;2.80;;;2.60;;
16994;SDS011;8614;48.522;9.206;2023-04-24T03:27:35;2.63;;;2.37;;
16994;SDS011;8614;48.522;9.206;2023-04-24T03:30:30;2.47;;;2.37;;
16994;SDS011;8614;48.522;9.206;2023-04-24T03:32:59;2.57;;;2.40;;
16994;SDS011;8614;48.522;9.206;2023-04-24T03:35:31;2.50;;;2.40;;
16994;SDS011;8614;48.522;9.206;2023-04-24T03:38:02;2.67;;;2.50;;
16994;SDS011;8614;48.522;9.206;2023-04-24T03:40:48;2.80;;;2.60;;
16994;SDS011;8614;48.522;9.206;2023-04-24T03:43:34;3.10;;;2.80;;
16994;SDS011;8614;48.522;9.206;2023-04-24T03:46:01;2.63;;;2.37;;
16994;SDS011;8614;48.522;9.206;2023-04-24T03:48:31;2.87;;;2.67;;
16994;SDS011;8614;48.522;9.206;2023-04-24T03:50:58;4.00;;;3.63;;
16994;SDS011;8614;48.522;9.206;2023-04-24T03:53:26;4.73;;;4.37;;
16994;SDS011;8614;48.522;9.206;2023-04-24T03:55:54;4.80;;;4.50;;
16994;SDS011;8614;48.522;9.206;2023-04-24T03:58:22;4.90;;;4.60;;
16994;SDS011;8614;48.522;9.206;2023-04-24T04:00:50;4.90;;;4.50;;
16994;SDS011;8614;48.522;9.206;2023-04-24T04:03:36;4.47;;;4.17;;
16994;SDS011;8614;48.522;9.206;2023-04-24T04:06:03;4.60;;;4.30;;
16994;SDS011;8614;48.522;9.206;2023-04-24T04:08:34;4.53;;;4.33;;
16994;SDS011;8614;48.522;9.206;2023-04-24T04:11:01;4.70;;;4.40;;
16994;SDS011;8614;48.522;9.206;2023-04-24T04:13:28;4.17;;;3.97;;
16994;SDS011;8614;48.522;9.206;2023-04-24T04:15:56;4.50;;;4.20;;
16994;SDS011;8614;48.522;9.206;2023-04-24T04:18:23;4.20;;;4.00;;
16994;SDS011;8614;48.522;9.206;2023-04-24T04:20:50;4.90;;;4.60;;
16994;SDS011;8614;48.522;9.206;2023-04-24T04:23:17;4.70;;;4.40;;
16994;SDS011;8614;48.522;9.206;2023-04-24T04:25:59;4.40;;;4.20;;
16994;SDS011;8614;48.522;9.206;2023-04-24T04:28:36;5.03;;;4.53;;
16994;SDS011;8614;48.522;9.206;2023-04-24T04:31:04;5.20;;;4.80;;
16994;SDS011;8614;48.522;9.206;2023-04-24T04:33:33;5.17;;;4.70;;
16994;SDS011;8614;48.522;9.206;2023-04-24T04:36:01;5.17;;;4.70;;
16994;SDS011;8614;48.522;9.206;2023-04-24T04:38:30;4.80;;;4.50;;
16994;SDS011;8614;48.522;9.206;2023-04-24T04:41:07;4.33;;;4.00;;
16994;SDS011;8614;48.522;9.206;2023-04-24T04:43:34;4.20;;;3.97;;
16994;SDS011;8614;48.522;9.206;2023-04-24T04:46:02;4.60;;;3.47;;
16994;SDS011;8614;48.522;9.206;2023-04-24T04:48:57;3.60;;;3.30;;
16994;SDS011;8614;48.522;9.206;2023-04-24T04:51:25;3.70;;;3.40;;
16994;SDS011;8614;48.522;9.206;2023-04-24T04:53:52;3.90;;;3.57;;
16994;SDS011;8614;48.522;9.206;2023-04-24T04:56:20;3.90;;;3.60;;
16994;SDS011;8614;48.522;9.206;2023-04-24T04:58:48;5.03;;;4.50;;
16994;SDS011;8614;48.522;9.206;2023-04-24T05:01:16;4.13;;;3.83;;
16994;SDS011;8614;48.522;9.206;2023-04-24T05:03:45;4.00;;;3.80;;
16994;SDS011;8614;48.522;9.206;2023-04-24T05:06:15;3.73;;;3.53;;
16994;SDS011;8614;48.522;9.206;2023-04-24T05:08:43;4.03;;;3.60;;
16994;SDS011;8614;48.522;9.206;2023-04-24T05:11:22;3.60;;;3.40;;
16994;SDS011;8614;48.522;9.206;2023-04-24T05:13:50;5.10;;;4.80;;
16994;SDS011;8614;48.522;9.206;2023-04-24T05:16:22;4.63;;;4.40;;
16994;SDS011;8614;48.522;9.206;2023-04-24T05:18:51;4.60;;;4.30;;
16994;SDS011;8614;48.522;9.206;2023-04-24T05:21:23;4.60;;;4.30;;
16994;SDS011;8614;48.522;9.206;2023-04-24T05:23:51;5.63;;;5.03;;
16994;SDS011;8614;48.522;9.206;2023-04-24T05:26:32;5.13;;;4.73;;
16994;SDS011;8614;48.522;9.206;2023-04-24T05:28:59;4.93;;;4.63;;
16994;SDS011;8614;48.522;9.206;2023-04-24T05:31:26;4.80;;;4.50;;
16994;SDS011;8614;48.522;9.206;2023-04-24T05:33:53;4.93;;;4.63;;
16994;SDS011;8614;48.522;9.206;2023-04-24T05:36:21;5.27;;;4.90;;
16994;SDS011;8614;48.522;9.206;2023-04-24T05:38:47;5.40;;;5.00;;
16994;SDS011;8614;48.522;9.206;2023-04-24T05:41:14;5.10;;;4.70;;
16994;SDS011;8614;48.522;9.206;2023-04-24T05:43:42;4.67;;;4.37;;
16994;SDS011;8614;48.522;9.206;2023-04-24T05:46:09;4.80;;;4.40;;
16994;SDS011;8614;48.522;9.206;2023-04-24T05:48:38;4.90;;;4.60;;
16994;SDS011;8614;48.522;9.206;2023-04-24T05:51:05;4.90;;;4.60;;
16994;SDS011;8614;48.522;9.206;2023-04-24T05:53:32;5.20;;;4.80;;
16994;SDS011;8614;48.522;9.206;2023-04-24T05:55:59;4.80;;;4.50;;
16994;SDS011;8614;48.522;9.206;2023-04-24T05:58:26;3.87;;;3.57;;
16994;SDS011;8614;48.522;9.206;2023-04-24T06:00:55;3.70;;;3.40;;
16994;SDS011;8614;48.522;9.206;2023-04-24T06:03:24;3.70;;;3.40;;
16994;SDS011;8614;48.522;9.206;2023-04-24T06:05:51;3.53;;;3.23;;
16994;SDS011;8614;48.522;9.206;2023-04-24T06:08:20;4.40;;;4.10;;
16994;SDS011;8614;48.522;9.206;2023-04-24T06:10:48;5.17;;;4.77;;
16994;SDS011;8614;48.522;9.206;2023-04-24T06:13:17;4.90;;;4.50;;
16994;SDS011;8614;48.522;9.206;2023-04-24T06:16:05;3.50;;;3.20;;
16994;SDS011;8614;48.522;9.206;2023-04-24T06:18:36;3.37;;;3.17;;
16994;SDS011;8614;48.522;9.206;2023-04-24T06:21:03;3.13;;;2.93;;
16994;SDS011;8614;48.522;9.206;2023-04-24T06:23:30;3.23;;;3.03;;
16994;SDS011;8614;48.522;9.206;2023-04-24T06:25:58;3.07;;;2.80;;
16994;SDS011;8614;48.522;9.206;2023-04-24T06:28:24;3.50;;;3.20;;
16994;SDS011;8614;48.522;9.206;2023-04-24T06:30:52;3.00;;;2.87;;
16994;SDS011;8614;48.522;9.206;2023-04-24T06:33:20;3.27;;;2.97;;
16994;SDS011;8614;48.522;9.206;2023-04-24T06:35:47;3.37;;;3.10;;
16994;SDS011;8614;48.522;9.206;2023-04-24T06:38:13;4.90;;;3.20;;
16994;SDS011;8614;48.522;9.206;2023-04-24T06:40:41;3.77;;;3.20;;
16994;SDS011;8614;48.522;9.206;2023-04-24T06:43:07;3.33;;;3.13;;
16994;SDS011;8614;48.522;9.206;2023-04-24T06:45:34;3.30;;;3.00;;
16994;SDS011;8614;48.522;9.206;2023-04-24T06:48:01;3.43;;;3.20;;
16994;SDS011;8614;48.522;9.206;2023-04-24T06:50:30;4.03;;;3.00;;
16994;SDS011;8614;48.522;9.206;2023-04-24T06:52:56;3.50;;;3.20;;
16994;SDS011;8614;48.522;9.206;2023-04-24T06:55:23;3.73;;;3.10;;
16994;SDS011;8614;48.522;9.206;2023-04-24T06:57:50;3.33;;;3.13;;
16994;SDS011;8614;48.522;9.206;2023-04-24T07:00:17;3.77;;;3.40;;
16994;SDS011;8614;48.522;9.206;2023-04-24T07:02:44;3.30;;;3.10;;
16994;SDS011;8614;48.522;9.206;2023-04-24T07:05:11;3.37;;;3.07;;
16994;SDS011;8614;48.522;9.206;2023-04-24T07:07:39;3.03;;;2.83;;
16994;SDS011;8614;48.522;9.206;2023-04-24T07:10:08;3.43;;;2.80;;
16994;SDS011;8614;48.522;9.206;2023-04-24T07:12:35;3.10;;;2.90;;
16994;SDS011;8614;48.522;9.206;2023-04-24T07:15:02;2.70;;;2.53;;
16994;SDS011;8614;48.522;9.206;2023-04-24T07:17:30;2.70;;;2.60;;
16994;SDS011;8614;48.522;9.206;2023-04-24T07:19:56;3.90;;;3.00;;
16994;SDS011;8614;48.522;9.206;2023-04-24T07:22:23;3.30;;;3.00;;
16994;SDS011;8614;48.522;9.206;2023-04-24T07:24:52;3.10;;;2.80;;
16994;SDS011;8614;48.522;9.206;2023-04-24T07:27:18;2.60;;;2.50;;
16994;SDS011;8614;48.522;9.206;2023-04-24T07:29:45;3.17;;;2.87;;
16994;SDS011;8614;48.522;9.206;2023-04-24T07:32:12;3.00;;;2.80;;
16994;SDS011;8614;48.522;9.206;2023-04-24T07:34:39;2.80;;;2.60;;
16994;SDS011;8614;48.522;9.206;2023-04-24T07:37:05;3.13;;;2.80;;
16994;SDS011;8614;48.522;9.206;2023-04-24T07:39:32;3.10;;;2.90;;
16994;SDS011;8614;48.522;9.206;2023-04-24T07:42:00;3.10;;;2.90;;
16994;SDS011;8614;48.522;9.206;2023-04-24T07:44:27;2.80;;;2.60;;
16994;SDS011;8614;48.522;9.206;2023-04-24T07:46:54;2.90;;;2.70;;
16994;SDS011;8614;48.522;9.206;2023-04-24T07:49:22;3.17;;;2.70;;
16994;SDS011;8614;48.522;9.206;2023-04-24T07:51:48;2.50;;;2.40;;
16994;SDS011;8614;48.522;9.206;2023-04-24T07:54:15;6.93;;;4.63;;
16994;SDS011;8614;48.522;9.206;2023-04-24T07:56:43;3.03;;;2.83;;
16994;SDS011;8614;48.522;9.206;2023-04-24T07:59:11;2.83;;;2.63;;
16994;SDS011;8614;48.522;9.206;2023-04-24T08:01:38;2.60;;;2.40;;
16994;SDS011;8614;48.522;9.206;2023-04-24T08:04:05;2.80;;;2.60;;
16994;SDS011;8614;48.522;9.206;2023-04-24T08:06:32;3.33;;;3.00;;
16994;SDS011;8614;48.522;9.206;2023-04-24T08:08:59;3.20;;;2.90;;
16994;SDS011;8614;48.522;9.206;2023-04-24T08:11:26;2.67;;;2.47;;
16994;SDS011;8614;48.522;9.206;2023-04-24T08:13:53;2.90;;;2.70;;
16994;SDS011;8614;48.522;9.206;2023-04-24T08:16:22;3.23;;;2.70;;
16994;SDS011;8614;48.522;9.206;2023-04-24T08:18:48;3.07;;;2.50;;
16994;SDS011;8614;48.522;9.206;2023-04-24T08:21:16;2.60;;;2.40;;
16994;SDS011;8614;48.522;9.206;2023-04-24T08:23:43;2.60;;;2.50;;
16994;SDS011;8614;48.522;9.206;2023-04-24T08:26:11;2.90;;;2.70;;
16994;SDS011;8614;48.522;9.206;2023-04-24T08:28:37;2.47;;;2.30;;
16994;SDS011;8614;48.522;9.206;2023-04-24T08:31:04;2.37;;;2.17;;
16994;SDS011;8614;48.522;9.206;2023-04-24T08:33:32;2.87;;;2.57;;
16994;SDS011;8614;48.522;9.206;2023-04-24T08:36:00;2.77;;;2.50;;
16994;SDS011;8614;48.522;9.206;2023-04-24T08:38:27;3.77;;;3.17;;
16994;SDS011;8614;48.522;9.206;2023-04-24T08:40:54;2.73;;;2.50;;
16994;SDS011;8614;48.522;9.206;2023-04-24T08:43:24;4.40;;;3.10;;
16994;SDS011;8614;48.522;9.206;2023-04-24T08:45:51;3.17;;;2.63;;
16994;SDS011;8614;48.522;9.206;2023-04-24T08:48:18;2.83;;;2.63;;
16994;SDS011;8614;48.522;9.206;2023-04-24T08:50:49;3.10;;;2.80;;
16994;SDS011;8614;48.522;9.206;2023-04-24T08:53:17;2.87;;;2.67;;
16994;SDS011;8614;48.522;9.206;2023-04-24T08:55:45;2.90;;;2.70;;
16994;SDS011;8614;48.522;9.206;2023-04-24T08:58:14;3.47;;;3.07;;
16994;SDS011;8614;48.522;9.206;2023-04-24T09:00:43;4.17;;;2.63;;
16994;SDS011;8614;48.522;9.206;2023-04-24T09:03:12;3.50;;;2.70;;
16994;SDS011;8614;48.522;9.206;2023-04-24T09:05:40;2.70;;;2.50;;
16994;SDS011;8614;48.522;9.206;2023-04-24T09:08:12;2.50;;;2.30;;
16994;SDS011;8614;48.522;9.206;2023-04-24T09:10:40;3.73;;;2.90;;
16994;SDS011;8614;48.522;9.206;2023-04-24T09:13:07;4.33;;;2.60;;
16994;SDS011;8614;48.522;9.206;2023-04-24T09:15:35;3.10;;;2.80;;
16994;SDS011;8614;48.522;9.206;2023-04-24T09:18:02;3.00;;;2.70;;
16994;SDS011;8614;48.522;9.206;2023-04-24T09:20:28;2.70;;;2.57;;
16994;SDS011;8614;48.522;9.206;2023-04-24T09:22:56;3.03;;;2.73;;
16994;SDS011;8614;48.522;9.206;2023-04-24T09:25:26;4.47;;;2.70;;
16994;SDS011;8614;48.522;9.206;2023-04-24T09:28:00;5.53;;;2.77;;
16994;SDS011;8614;48.522;9.206;2023-04-24T09:30:27;2.93;;;2.70;;
16994;SDS011;8614;48.522;9.206;2023-04-24T09:33:09;2.93;;;2.67;;
16994;SDS011;8614;48.522;9.206;2023-04-24T09:35:39;3.30;;;3.00;;
16994;SDS011;8614;48.522;9.206;2023-04-24T09:38:08;2.97;;;2.77;;
16994;SDS011;8614;48.522;9.206;2023-04-24T09:40:36;2.93;;;2.70;;
16994;SDS011;8614;48.522;9.206;2023-04-24T09:43:03;3.63;;;2.60;;
16994;SDS011;8614;48.522;9.206;2023-04-24T09:45:34;4.50;;;2.53;;
16994;SDS011;8614;48.522;9.206;2023-04-24T09:48:02;3.43;;;2.63;;
16994;SDS011;8614;48.522;9.206;2023-04-24T09:50:30;3.83;;;2.60;;
16994;SDS011;8614;48.522;9.206;2023-04-24T09:53:01;4.80;;;2.90;;
16994;SDS011;8614;48.522;9.206;2023-04-24T09:55:28;3.87;;;2.60;;
16994;SDS011;8614;48.522;9.206;2023-04-24T09:57:57;6.10;;;2.73;;
16994;SDS011;8614;48.522;9.206;2023-04-24T10:00:26;3.17;;;2.40;;
16994;SDS011;8614;48.522;9.206;2023-04-24T10:02:55;2.97;;;2.40;;
16994;SDS011;8614;48.522;9.206;2023-04-24T10:05:23;2.60;;;2.40;;
16994;SDS011;8614;48.522;9.206;2023-04-24T10:07:51;2.80;;;2.30;;
16994;SDS011;8614;48.522;9.206;2023-04-24T10:10:22;3.63;;;2.63;;
16994;SDS011;8614;48.522;9.206;2023-04-24T10:12:49;4.83;;;2.50;;
16994;SDS011;8614;48.522;9.206;2023-04-24T10:15:18;2.53;;;2.37;;
16994;SDS011;8614;48.522;9.206;2023-04-24T10:17:46;4.87;;;2.20;;
16994;SDS011;8614;48.522;9.206;2023-04-24T10:20:17;4.23;;;2.40;;
16994;SDS011;8614;48.522;9.206;2023-04-24T10:22:46;2.13;;;2.03;;
16994;SDS011;8614;48.522;9.206;2023-04-24T10:25:17;3.83;;;2.40;;
16994;SDS011;8614;48.522;9.206;2023-04-24T10:27:45;3.20;;;2.13;;
16994;SDS011;8614;48.522;9.206;2023-04-24T10:30:13;2.60;;;2.40;;
16994;SDS011;8614;48.522;9.206;2023-04-24T10:32:42;2.40;;;2.20;;
16994;SDS011;8614;48.522;9.206;2023-04-24T10:35:09;2.63;;;2.43;;
16994;SDS011;8614;48.522;9.206;2023-04-24T10:37:38;2.30;;;2.10;;
16994;SDS011;8614;48.522;9.206;2023-04-24T10:40:08;3.23;;;2.23;;
16994;SDS011;8614;48.522;9.206;2023-04-24T10:42:39;2.50;;;2.20;;
16994;SDS011;8614;48.522;9.206;2023-04-24T10:45:15;2.03;;;1.90;;
16994;SDS011;8614;48.522;9.206;2023-04-24T10:47:44;3.13;;;2.30;;
16994;SDS011;8614;48.522;9.206;2023-04-24T10:50:17;2.33;;;1.97;;
16994;SDS011;8614;48.522;9.206;2023-04-24T10:52:44;2.40;;;2.20;;
16994;SDS011;8614;48.522;9.206;2023-04-24T10:55:12;2.33;;;2.10;;
16994;SDS011;8614;48.522;9.206;2023-04-24T10:57:39;2.30;;;2.20;;
16994;SDS011;8614;48.522;9.206;2023-04-24T11:00:10;2.37;;;2.27;;
16994;SDS011;8614;48.522;9.206;2023-04-24T11:02:40;2.47;;;2.37;;
16994;SDS011;8614;48.522;9.206;2023-04-24T11:05:16;2.30;;;2.20;;
16994;SDS011;8614;48.522;9.206;2023-04-24T11:10:39;3.37;;;2.33;;
16994;SDS011;8614;48.522;9.206;2023-04-24T11:13:09;3.37;;;2.40;;
16994;SDS011;8614;48.522;9.206;2023-04-24T11:15:36;2.73;;;2.33;;
16994;SDS011;8614;48.522;9.206;2023-04-24T11:18:03;2.43;;;2.33;;
16994;SDS011;8614;48.522;9.206;2023-04-24T11:20:31;2.43;;;2.30;;
16994;SDS011;8614;48.522;9.206;2023-04-24T11:23:00;2.20;;;2.10;;
16994;SDS011;8614;48.522;9.206;2023-04-24T11:25:30;2.30;;;2.10;;
16994;SDS011;8614;48.522;9.206;2023-04-24T11:28:02;2.30;;;2.10;;
16994;SDS011;8614;48.522;9.206;2023-04-24T11:30:30;2.30;;;2.20;;
16994;SDS011;8614;48.522;9.206;2023-04-24T11:33:01;3.27;;;2.40;;
16994;SDS011;8614;48.522;9.206;2023-04-24T11:35:29;2.33;;;2.20;;
16994;SDS011;8614;48.522;9.206;2023-04-24T11:38:03;2.83;;;2.10;;
16994;SDS011;8614;48.522;9.206;2023-04-24T11:40:31;2.40;;;2.20;;
16994;SDS011;8614;48.522;9.206;2023-04-24T11:42:59;2.30;;;2.10;;
16994;SDS011;8614;48.522;9.206;2023-04-24T11:45:27;2.20;;;2.00;;
16994;SDS011;8614;48.522;9.206;2023-04-24T11:47:54;2.10;;;1.90;;
16994;SDS011;8614;48.522;9.206;2023-04-24T11:50:24;2.00;;;1.90;;
16994;SDS011;8614;48.522;9.206;2023-04-24T11:52:53;2.30;;;2.10;;
16994;SDS011;8614;48.522;9.206;2023-04-24T11:55:25;2.20;;;2.10;;
16994;SDS011;8614;48.522;9.206;2023-04-24T11:57:54;1.90;;;1.80;;
16994;SDS011;8614;48.522;9.206;2023-04-24T12:00:23;2.80;;;2.10;;
16994;SDS011;8614;48.522;9.206;2023-04-24T12:02:51;2.00;;;1.90;;
16994;SDS011;8614;48.522;9.206;2023-04-24T12:05:29;2.37;;;2.00;;
16994;SDS011;8614;48.522;9.206;2023-04-24T12:07:57;2.60;;;2.10;;
16994;SDS011;8614;48.522;9.206;2023-04-24T12:10:24;2.20;;;2.10;;
16994;SDS011;8614;48.522;9.206;2023-04-24T12:12:55;2.00;;;1.90;;
16994;SDS011;8614;48.522;9.206;2023-04-24T12:15:23;2.37;;;2.07;;
16994;SDS011;8614;48.522;9.206;2023-04-24T12:17:51;2.40;;;2.20;;
16994;SDS011;8614;48.522;9.206;2023-04-24T12:20:23;2.43;;;2.23;;
16994;SDS011;8614;48.522;9.206;2023-04-24T12:22:51;2.30;;;2.10;;
16994;SDS011;8614;48.522;9.206;2023-04-24T12:25:20;2.73;;;2.23;;
16994;SDS011;8614;48.522;9.206;2023-04-24T12:27:53;2.77;;;2.00;;
16994;SDS011;8614;48.522;9.206;2023-04-24T12:30:21;2.00;;;1.80;;
16994;SDS011;8614;48.522;9.206;2023-04-24T12:32:52;2.47;;;2.27;;
16994;SDS011;8614;48.522;9.206;2023-04-24T12:35:20;3.03;;;2.00;;
16994;SDS011;8614;48.522;9.206;2023-04-24T12:37:48;2.43;;;2.23;;
16994;SDS011;8614;48.522;9.206;2023-04-24T12:40:16;2.60;;;2.30;;
16994;SDS011;8614;48.522;9.206;2023-04-24T12:42:44;2.33;;;2.13;;
16994;SDS011;8614;48.522;9.206;2023-04-24T12:45:13;2.40;;;2.20;;
16994;SDS011;8614;48.522;9.206;2023-04-24T12:47:41;2.20;;;2.10;;
16994;SDS011;8614;48.522;9.206;2023-04-24T12:50:09;2.40;;;2.30;;
16994;SDS011;8614;48.522;9.206;2023-04-24T12:52:37;2.13;;;2.03;;
16994;SDS011;8614;48.522;9.206;2023-04-24T12:55:04;2.63;;;2.50;;
16994;SDS011;8614;48.522;9.206;2023-04-24T12:57:33;2.57;;;2.30;;
16994;SDS011;8614;48.522;9.206;2023-04-24T13:00:01;2.60;;;2.40;;
16994;SDS011;8614;48.522;9.206;2023-04-24T13:02:30;2.77;;;2.57;;
16994;SDS011;8614;48.522;9.206;2023-04-24T13:04:57;4.10;;;2.50;;
16994;SDS011;8614;48.522;9.206;2023-04-24T13:07:25;2.53;;;2.33;;
16994;SDS011;8614;48.522;9.206;2023-04-24T13:09:52;2.47;;;2.27;;
16994;SDS011;8614;48.522;9.206;2023-04-24T13:12:20;2.60;;;2.40;;
16994;SDS011;8614;48.522;9.206;2023-04-24T13:14:48;3.50;;;2.73;;
16994;SDS011;8614;48.522;9.206;2023-04-24T13:17:15;2.50;;;2.30;;
16994;SDS011;8614;48.522;9.206;2023-04-24T13:19:43;2.80;;;2.30;;
16994;SDS011;8614;48.522;9.206;2023-04-24T13:22:11;3.13;;;2.50;;
16994;SDS011;8614;48.522;9.206;2023-04-24T13:24:39;2.33;;;2.13;;
16994;SDS011;8614;48.522;9.206;2023-04-24T13:27:07;2.60;;;2.40;;
16994;SDS011;8614;48.522;9.206;2023-04-24T13:29:34;2.20;;;2.00;;
16994;SDS011;8614;48.522;9.206;2023-04-24T13:32:01;3.80;;;2.33;;
16994;SDS011;8614;48.522;9.206;2023-04-24T13:34:28;2.40;;;2.20;;
16994;SDS011;8614;48.522;9.206;2023-04-24T13:36:57;2.53;;;2.30;;
16994;SDS011;8614;48.522;9.206;2023-04-24T13:39:24;3.47;;;2.37;;
16994;SDS011;8614;48.522;9.206;2023-04-24T13:41:52;2.40;;;2.20;;
16994;SDS011;8614;48.522;9.206;2023-04-24T13:44:20;2.40;;;2.20;;
16994;SDS011;8614;48.522;9.206;2023-04-24T13:46:49;2.47;;;2.27;;
16994;SDS011;8614;48.522;9.206;2023-04-24T13:49:17;2.20;;;2.10;;
16994;SDS011;8614;48.522;9.206;2023-04-24T13:51:44;3.07;;;1.90;;
16994;SDS011;8614;48.522;9.206;2023-04-24T13:54:13;2.10;;;1.90;;
16994;SDS011;8614;48.522;9.206;2023-04-24T13:56:40;2.27;;;2.17;;
16994;SDS011;8614;48.522;9.206;2023-04-24T13:59:07;2.50;;;2.20;;
16994;SDS011;8614;48.522;9.206;2023-04-24T14:01:34;2.20;;;2.10;;
16994;SDS011;8614;48.522;9.206;2023-04-24T14:04:01;3.90;;;2.13;;
16994;SDS011;8614;48.522;9.206;2023-04-24T14:06:28;2.50;;;2.20;;
16994;SDS011;8614;48.522;9.206;2023-04-24T14:08:54;4.73;;;2.20;;
16994;SDS011;8614;48.522;9.206;2023-04-24T14:11:22;2.13;;;2.03;;
16994;SDS011;8614;48.522;9.206;2023-04-24T14:13:49;2.57;;;2.37;;
16994;SDS011;8614;48.522;9.206;2023-04-24T14:16:16;2.30;;;2.00;;
16994;SDS011;8614;48.522;9.206;2023-04-24T14:18:43;2.23;;;1.90;;
16994;SDS011;8614;48.522;9.206;2023-04-24T14:21:10;2.50;;;2.30;;
16994;SDS011;8614;48.522;9.206;2023-04-24T14:23:37;2.30;;;2.10;;
16994;SDS011;8614;48.522;9.206;2023-04-24T14:26:04;2.30;;;2.20;;
16994;SDS011;8614;48.522;9.206;2023-04-24T14:28:32;2.87;;;2.40;;
16994;SDS011;8614;48.522;9.206;2023-04-24T14:30:59;2.97;;;2.07;;
16994;SDS011;8614;48.522;9.206;2023-04-24T14:33:26;2.37;;;2.13;;
16994;SDS011;8614;48.522;9.206;2023-04-24T14:35:53;2.47;;;2.37;;
16994;SDS011;8614;48.522;9.206;2023-04-24T14:38:20;2.60;;;2.50;;
16994;SDS011;8614;48.522;9.206;2023-04-24T14:40:47;3.43;;;3.23;;
16994;SDS011;8614;48.522;9.206;2023-04-24T14:43:14;3.63;;;3.33;;
16994;SDS011;8614;48.522;9.206;2023-04-24T14:45:42;2.97;;;2.77;;
16994;SDS011;8614;48.522;9.206;2023-04-24T14:48:09;2.70;;;2.50;;
16994;SDS011;8614;48.522;9.206;2023-04-24T14:50:36;3.07;;;2.40;;
16994;SDS011;8614;48.522;9.206;2023-04-24T14:53:03;3.17;;;2.93;;
16994;SDS011;8614;48.522;9.206;2023-04-24T14:55:30;3.73;;;3.43;;
16994;SDS011;8614;48.522;9.206;2023-04-24T14:57:58;3.67;;;3.40;;
16994;SDS011;8614;48.522;9.206;2023-04-24T15:00:25;4.03;;;3.67;;
16994;SDS011;8614;48.522;9.206;2023-04-24T15:02:53;3.60;;;3.40;;
16994;SDS011;8614;48.522;9.206;2023-04-24T15:05:20;3.40;;;3.20;;
16994;SDS011;8614;48.522;9.206;2023-04-24T15:07:47;3.40;;;3.10;;
16994;SDS011;8614;48.522;9.206;2023-04-24T15:10:14;3.23;;;3.03;;